Time;durP1;ratioP1;P1;durP2;ratioP2;P2;SDS_P1;SDS_P2;PMS_P1;PMS_P2;Temp;Humidity;BMP_temperature;BMP_pressure;BME280_temperature;BME280_humidity;BME280_pressure;Samples;Min_cycle;Max_cycle;Signal;HPM_P1;HPM_P2
2023/06/22 00:00:21;;;;;;;13.50;8.85;;;;;;;21.21;56.24;101227.13;693911;28;1030;-76
2023/06/22 00:00:42;;;;;;;12.75;8.50;;;;;;;21.28;56.06;101243.88;694449;28;1080;-76
2023/06/22 00:01:03;;;;;;;11.43;8.40;;;;;;;21.28;56.26;101243.88;696804;28;1182;-76
2023/06/22 00:01:24;;;;;;;11.98;8.70;;;;;;;21.28;55.80;101243.00;694663;28;1045;-76
2023/06/22 00:01:45;;;;;;;13.00;9.00;;;;;;;21.25;56.13;101237.72;696710;28;1001;-76
2023/06/22 00:02:05;;;;;;;12.57;9.13;;;;;;;21.23;56.18;101230.63;688611;28;1224;-76
2023/06/22 00:02:26;;;;;;;11.60;9.15;;;;;;;21.23;56.40;101233.28;688572;28;1009;-76
2023/06/22 00:02:47;;;;;;;11.20;9.20;;;;;;;21.22;55.95;101236.84;688673;28;1620;-76
2023/06/22 00:03:08;;;;;;;12.27;8.80;;;;;;;21.29;56.15;101245.63;688643;28;1238;-77
2023/06/22 00:03:28;;;;;;;11.97;8.77;;;;;;;21.26;56.23;101245.66;688625;28;1194;-76
2023/06/22 00:03:49;;;;;;;11.05;8.50;;;;;;;21.22;56.10;101233.31;688573;28;925;-77
2023/06/22 00:04:10;;;;;;;10.25;8.82;;;;;;;21.27;56.28;101236.78;688668;28;1318;-77
2023/06/22 00:04:31;;;;;;;11.43;9.20;;;;;;;21.24;56.48;101234.19;688579;28;1196;-77
2023/06/22 00:04:51;;;;;;;12.80;9.83;;;;;;;21.20;56.29;101224.47;690904;28;1136;-77
2023/06/22 00:05:12;;;;;;;12.85;9.90;;;;;;;21.30;56.21;101241.19;688702;28;1077;-77
2023/06/22 00:05:33;;;;;;;12.13;9.40;;;;;;;21.20;56.18;101225.38;685322;28;1175;-76
2023/06/22 00:05:54;;;;;;;10.70;9.00;;;;;;;21.21;56.40;101221.81;688020;28;1159;-77
2023/06/22 00:06:15;;;;;;;11.70;9.23;;;;;;;21.25;56.27;101227.97;691439;28;1338;-77
2023/06/22 00:06:35;;;;;;;15.88;9.90;;;;;;;21.24;56.30;101226.22;691287;28;859;-77
2023/06/22 00:06:56;;;;;;;16.63;9.93;;;;;;;21.23;56.30;101225.31;693721;28;1016;-76
2023/06/22 00:07:17;;;;;;;16.58;10.30;;;;;;;21.21;56.23;101218.28;688481;28;1024;-77
2023/06/22 00:07:38;;;;;;;12.55;10.15;;;;;;;21.17;56.48;101211.25;694074;28;800;-76
2023/06/22 00:08:03;;;;;;;11.37;9.80;;;;;;;21.23;56.33;101230.63;688446;28;1141;-77
2023/06/22 00:08:23;;;;;;;11.10;9.15;;;;;;;21.23;56.65;101227.97;691176;28;1319;-77
2023/06/22 00:08:44;;;;;;;11.60;9.20;;;;;;;21.13;56.47;101212.19;691135;28;1023;-77
2023/06/22 00:09:06;;;;;;;12.05;9.90;;;;;;;21.12;56.54;101210.38;688494;28;1371;-77
2023/06/22 00:09:27;;;;;;;13.60;9.98;;;;;;;21.08;56.73;101207.78;691311;28;1109;-76
2023/06/22 00:09:48;;;;;;;13.57;10.27;;;;;;;21.13;56.73;101212.19;687996;28;917;-77
2023/06/22 00:10:08;;;;;;;12.55;9.55;;;;;;;21.14;56.74;101219.25;691412;28;1970;-77
2023/06/22 00:10:29;;;;;;;11.73;9.50;;;;;;;21.07;56.77;101208.69;691792;28;1111;-77
2023/06/22 00:10:50;;;;;;;11.38;9.05;;;;;;;21.10;56.68;101213.94;695080;28;921;-77
2023/06/22 00:11:11;;;;;;;12.45;9.63;;;;;;;21.12;56.77;101210.38;699587;28;1096;-77
2023/06/22 00:11:33;;;;;;;12.38;9.68;;;;;;;21.15;56.72;101215.69;696600;28;1308;-77
2023/06/22 00:11:53;;;;;;;12.25;9.63;;;;;;;21.07;56.74;101202.47;697329;28;930;-77
2023/06/22 00:12:17;;;;;;;11.50;9.37;;;;;;;21.17;56.86;101224.50;699603;28;723;-77
2023/06/22 00:12:56;;;;;;;11.70;9.40;;;;;;;21.14;57.04;101224.53;696823;28;1051;-77
2023/06/22 00:13:35;;;;;;;11.13;9.38;;;;;;;21.07;56.97;101219.28;696632;28;894;-77
2023/06/22 00:13:56;;;;;;;10.87;9.43;;;;;;;21.05;57.02;101209.56;699522;28;903;-77
2023/06/22 00:14:17;;;;;;;13.00;10.05;;;;;;;21.07;56.95;101207.78;696338;28;1006;-76
2023/06/22 00:14:37;;;;;;;13.80;10.00;;;;;;;21.06;57.05;101216.63;694006;28;1267;-77
2023/06/22 00:14:59;;;;;;;13.68;9.75;;;;;;;21.05;56.98;101215.78;690647;28;1251;-77
2023/06/22 00:15:20;;;;;;;11.65;9.50;;;;;;;21.07;57.02;101219.28;693469;28;1176;-77
2023/06/22 00:15:41;;;;;;;11.07;9.70;;;;;;;21.05;57.04;101218.44;694060;28;1010;-77
2023/06/22 00:16:02;;;;;;;11.18;9.52;;;;;;;21.02;57.01;101210.47;694123;28;1167;-77
2023/06/22 00:16:22;;;;;;;13.90;9.75;;;;;;;21.07;57.21;101215.75;696765;28;940;-77
2023/06/22 00:16:43;;;;;;;13.80;9.37;;;;;;;21.06;57.23;101222.84;696793;28;1251;-76
2023/06/22 00:17:04;;;;;;;13.80;9.63;;;;;;;21.02;57.14;101213.13;687929;28;1363;-76
2023/06/22 00:17:25;;;;;;;12.05;9.20;;;;;;;21.02;57.11;101210.47;691289;28;1023;-77
2023/06/22 00:17:46;;;;;;;13.15;9.60;;;;;;;20.98;57.21;101210.53;691295;28;1305;-77
2023/06/22 00:18:08;;;;;;;12.93;9.70;;;;;;;20.94;57.35;101202.59;688627;28;1110;-77
2023/06/22 00:18:32;;;;;;;12.43;9.75;;;;;;;21.02;57.43;101210.47;690573;28;1208;-77
2023/06/22 00:18:52;;;;;;;12.07;9.38;;;;;;;20.99;57.54;101210.53;691263;28;1924;-77
2023/06/22 00:19:13;;;;;;;11.57;8.87;;;;;;;20.95;57.51;101199.06;691326;28;1206;-77
2023/06/22 00:19:35;;;;;;;10.80;8.80;;;;;;;20.96;57.57;101195.50;696462;28;1098;-77
2023/06/22 00:19:58;;;;;;;9.95;8.35;;;;;;;20.92;57.68;101191.13;696731;28;1388;-77
2023/06/22 00:20:19;;;;;;;11.13;8.98;;;;;;;20.93;57.79;101192.00;695467;28;1110;-77
2023/06/22 00:20:41;;;;;;;11.95;9.40;;;;;;;20.93;57.78;101199.94;691372;28;1124;-77
2023/06/22 00:21:03;;;;;;;11.73;9.38;;;;;;;20.91;57.80;101191.13;690881;28;1073;-77
2023/06/22 00:21:23;;;;;;;11.25;9.27;;;;;;;20.87;57.84;101189.38;693999;28;1071;-77
2023/06/22 00:21:47;;;;;;;10.63;8.90;;;;;;;20.92;57.78;101192.91;693809;28;1132;-77
2023/06/22 00:22:07;;;;;;;10.38;8.48;;;;;;;20.96;57.75;101207.88;694023;28;1090;-77
2023/06/22 00:22:28;;;;;;;10.73;8.40;;;;;;;20.89;57.67;101192.94;691030;28;1020;-77
2023/06/22 00:22:49;;;;;;;11.13;8.60;;;;;;;20.86;57.70;101192.94;691336;28;1228;-78
2023/06/22 00:23:09;;;;;;;11.50;8.88;;;;;;;20.86;57.87;101191.19;693490;28;1138;-77
2023/06/22 00:23:34;;;;;;;10.80;8.93;;;;;;;20.86;57.78;101192.94;695824;28;1046;-77
2023/06/22 00:23:55;;;;;;;11.65;9.55;;;;;;;20.94;58.01;101214.97;688556;28;1382;-77
2023/06/22 00:24:16;;;;;;;11.90;9.90;;;;;;;20.91;57.84;101204.41;691272;28;1004;-77
2023/06/22 00:24:36;;;;;;;11.77;9.80;;;;;;;20.91;57.82;101215.00;694106;28;894;-77
2023/06/22 00:24:57;;;;;;;11.20;9.63;;;;;;;20.87;58.02;101207.97;691286;28;1056;-77
2023/06/22 00:25:18;;;;;;;11.10;9.27;;;;;;;20.89;58.05;101217.66;691182;28;1124;-77
2023/06/22 00:25:41;;;;;;;10.23;8.80;;;;;;;20.85;57.94;101213.28;691794;28;843;-77
2023/06/22 00:26:02;;;;;;;10.80;9.30;;;;;;;20.82;58.18;101213.31;691308;28;1161;-78
2023/06/22 00:26:23;;;;;;;11.85;9.93;;;;;;;20.86;58.22;101219.47;689882;28;1166;-78
2023/06/22 00:26:44;;;;;;;12.38;10.40;;;;;;;20.89;58.18;101222.97;689317;28;1141;-77
2023/06/22 00:27:05;;;;;;;13.07;10.50;;;;;;;20.87;58.24;101221.22;687976;28;1830;-77
2023/06/22 00:27:26;;;;;;;12.98;10.43;;;;;;;20.85;58.34;101223.00;690454;28;1247;-76
2023/06/22 00:27:47;;;;;;;13.20;10.17;;;;;;;20.86;58.09;101230.97;689937;28;1231;-76
2023/06/22 00:28:08;;;;;;;11.75;9.55;;;;;;;20.80;58.03;101215.97;694005;28;1003;-76
2023/06/22 00:28:30;;;;;;;11.55;9.15;;;;;;;20.87;58.30;101226.53;694032;28;1178;-77
2023/06/22 00:28:50;;;;;;;10.82;8.93;;;;;;;20.82;58.20;101218.59;691113;28;897;-78
2023/06/22 00:29:11;;;;;;;12.32;9.55;;;;;;;20.88;58.20;101222.97;688734;28;1118;-77
2023/06/22 00:29:32;;;;;;;12.77;10.00;;;;;;;20.83;58.31;101223.00;691718;28;1098;-77
2023/06/22 00:29:53;;;;;;;12.57;10.40;;;;;;;20.77;58.29;101213.34;691275;28;904;-77
2023/06/22 00:30:18;;;;;;;11.52;10.32;;;;;;;20.72;58.37;101207.19;688526;28;1891;-77
2023/06/22 00:30:39;;;;;;;11.80;10.18;;;;;;;20.77;58.45;101221.28;688681;28;848;-77
2023/06/22 00:31:00;;;;;;;12.80;10.38;;;;;;;20.76;58.63;101221.28;694003;28;1260;-76
2023/06/22 00:31:21;;;;;;;13.77;10.80;;;;;;;20.69;58.56;101207.19;691138;28;1043;-76
2023/06/22 00:31:41;;;;;;;14.40;10.57;;;;;;;20.73;58.72;101214.28;693590;28;1379;-77
2023/06/22 00:32:03;;;;;;;14.17;10.30;;;;;;;20.70;58.75;101203.66;694081;28;1065;-77
2023/06/22 00:32:23;;;;;;;13.30;9.70;;;;;;;20.75;58.81;101217.78;691074;28;1697;-77
2023/06/22 00:32:45;;;;;;;12.20;9.70;;;;;;;20.74;58.75;101221.34;688577;28;1251;-77
2023/06/22 00:33:09;;;;;;;11.73;10.05;;;;;;;20.71;58.73;101202.78;693959;28;1320;-77
2023/06/22 00:33:30;;;;;;;12.10;10.10;;;;;;;20.72;58.63;101206.31;691168;28;1194;-77
2023/06/22 00:33:50;;;;;;;12.57;10.40;;;;;;;20.75;58.91;101212.47;691222;28;1061;-77
2023/06/22 00:34:11;;;;;;;13.05;10.40;;;;;;;20.74;58.92;101205.41;688587;28;1175;-77
2023/06/22 00:34:32;;;;;;;14.57;10.48;;;;;;;20.72;58.86;101207.19;691193;28;1046;-77
2023/06/22 00:34:54;;;;;;;14.55;10.48;;;;;;;20.75;58.94;101209.81;693724;28;1050;-77
2023/06/22 00:35:15;;;;;;;14.48;10.70;;;;;;;20.71;59.00;101208.06;691333;28;999;-77
2023/06/22 00:35:35;;;;;;;13.10;11.05;;;;;;;20.77;58.92;101221.28;690751;28;966;-77
2023/06/22 00:35:57;;;;;;;15.02;11.50;;;;;;;20.73;59.10;101210.72;693866;28;1298;-77
2023/06/22 00:36:19;;;;;;;14.63;11.10;;;;;;;20.71;59.03;101208.06;691014;28;1069;-76
2023/06/22 00:36:40;;;;;;;14.80;10.77;;;;;;;20.68;59.12;101202.78;691140;28;1046;-76
2023/06/22 00:37:01;;;;;;;12.35;10.10;;;;;;;20.69;58.91;101209.84;693938;28;1388;-77
2023/06/22 00:37:25;;;;;;;12.80;10.43;;;;;;;20.71;59.16;101213.38;693189;28;1128;-76
2023/06/22 00:37:47;;;;;;;14.10;10.73;;;;;;;20.68;59.25;101205.41;696515;28;935;-77
2023/06/22 00:38:08;;;;;;;15.40;11.20;;;;;;;20.72;59.19;101215.13;696804;28;960;-77
2023/06/22 00:38:29;;;;;;;13.23;10.70;;;;;;;20.68;59.08;101213.38;691334;28;1376;-77
2023/06/22 00:38:50;;;;;;;13.27;10.60;;;;;;;20.66;59.24;101201.91;688414;28;1124;-77
2023/06/22 00:39:11;;;;;;;12.93;10.75;;;;;;;20.64;59.17;101208.97;688526;28;1579;-77
2023/06/22 00:39:33;;;;;;;13.25;11.25;;;;;;;20.68;59.28;101216.03;690731;28;1063;-77
2023/06/22 00:39:54;;;;;;;13.70;11.40;;;;;;;20.65;59.27;101211.63;693782;28;979;-76
2023/06/22 00:40:17;;;;;;;14.98;11.52;;;;;;;20.66;59.35;101210.72;688529;28;1314;-77
2023/06/22 00:40:38;;;;;;;14.52;11.40;;;;;;;20.71;59.35;101216.03;688634;28;863;-77
2023/06/22 00:40:59;;;;;;;13.80;10.75;;;;;;;20.71;59.33;101216.03;691177;28;1360;-77
2023/06/22 00:41:20;;;;;;;13.52;10.50;;;;;;;20.69;59.27;101213.38;693323;28;1225;-77
2023/06/22 00:41:41;;;;;;;14.03;10.87;;;;;;;20.69;59.48;101207.19;691124;28;1115;-77
2023/06/22 00:42:02;;;;;;;12.65;10.75;;;;;;;20.68;59.29;101216.03;691385;28;954;-77
2023/06/22 00:42:24;;;;;;;12.07;10.60;;;;;;;20.66;59.26;101202.78;689128;28;1027;-77
2023/06/22 00:42:45;;;;;;;12.50;10.95;;;;;;;20.71;59.26;101216.03;688263;28;1008;-77
2023/06/22 00:43:06;;;;;;;12.75;11.15;;;;;;;20.69;59.38;101216.03;689337;28;1169;-77
2023/06/22 00:43:27;;;;;;;13.20;11.07;;;;;;;20.67;59.38;101217.78;688464;28;1300;-77
2023/06/22 00:43:47;;;;;;;13.55;11.43;;;;;;;20.69;59.38;101212.47;691255;28;1116;-77
2023/06/22 00:44:08;;;;;;;14.70;11.85;;;;;;;20.70;59.37;101216.94;691390;28;1020;-77
2023/06/22 00:44:29;;;;;;;14.00;11.68;;;;;;;20.67;59.33;101208.97;691290;28;1015;-76
2023/06/22 00:44:50;;;;;;;13.50;11.27;;;;;;;20.72;59.44;101222.22;691083;28;1078;-77
2023/06/22 00:45:11;;;;;;;12.20;10.80;;;;;;;20.75;59.42;101223.09;691353;28;1007;-77
2023/06/22 00:45:32;;;;;;;12.77;10.80;;;;;;;20.71;59.28;101216.03;693922;28;1183;-77
2023/06/22 00:45:56;;;;;;;13.07;10.85;;;;;;;20.70;59.36;101211.63;691198;28;1026;-77
2023/06/22 00:46:17;;;;;;;12.45;10.90;;;;;;;20.75;59.49;101223.09;693864;28;1086;-77
2023/06/22 00:46:37;;;;;;;13.32;10.85;;;;;;;20.71;59.50;101220.47;694976;28;756;-77
2023/06/22 00:47:00;;;;;;;14.25;11.23;;;;;;;20.72;59.46;101227.53;690812;28;1922;-77
2023/06/22 00:47:21;;;;;;;16.98;11.25;;;;;;;20.67;59.49;101211.63;691108;28;1919;-77
2023/06/22 00:47:43;;;;;;;14.93;10.50;;;;;;;20.68;59.64;101222.22;691157;28;1251;-77
2023/06/22 00:48:06;;;;;;;12.98;9.98;;;;;;;20.67;59.75;101220.44;690479;28;1082;-77
2023/06/22 00:48:27;;;;;;;12.40;10.07;;;;;;;20.67;59.68;101220.44;691186;28;971;-78
2023/06/22 00:48:48;;;;;;;15.07;11.07;;;;;;;20.65;59.85;101216.06;690986;28;1128;-77
2023/06/22 00:49:09;;;;;;;15.95;11.20;;;;;;;20.64;59.85;101219.59;691228;28;1379;-77
2023/06/22 00:49:30;;;;;;;14.40;10.93;;;;;;;20.60;59.68;101209.91;693244;28;1043;-76
2023/06/22 00:49:51;;;;;;;13.48;10.35;;;;;;;20.68;59.86;101230.19;688459;28;1023;-76
2023/06/22 00:50:18;;;;;;;13.43;10.33;;;;;;;20.64;59.71;101222.22;693135;28;1913;-77
2023/06/22 00:50:40;;;;;;;13.00;10.23;;;;;;;20.67;59.73;101224.88;696769;28;1242;-77
2023/06/22 00:51:01;;;;;;;13.57;10.68;;;;;;;20.62;59.82;101214.31;691117;28;1015;-76
2023/06/22 00:51:24;;;;;;;14.50;10.90;;;;;;;20.65;59.99;101222.22;687782;28;1209;-76
2023/06/22 00:51:50;;;;;;;15.07;11.32;;;;;;;20.61;60.09;101220.50;688638;28;823;-76
2023/06/22 00:52:14;;;;;;;14.10;11.05;;;;;;;20.66;60.18;101229.28;691802;28;1030;-76
2023/06/22 00:52:35;;;;;;;13.20;10.60;;;;;;;20.60;60.07;101217.84;691145;28;1060;-77
2023/06/22 00:52:58;;;;;;;12.55;10.43;;;;;;;20.58;60.19;101214.34;691174;28;1525;-76
2023/06/22 00:53:19;;;;;;;11.80;10.20;;;;;;;20.60;60.24;101220.50;693305;28;1008;-76
2023/06/22 00:53:40;;;;;;;12.70;10.48;;;;;;;20.58;60.15;101219.66;689261;28;1239;-76
2023/06/22 00:54:01;;;;;;;12.40;10.30;;;;;;;20.56;60.40;101217.00;691078;28;858;-76
2023/06/22 00:54:24;;;;;;;12.65;10.20;;;;;;;20.54;60.39;101214.34;692011;28;1012;-76
2023/06/22 00:54:45;;;;;;;12.27;10.35;;;;;;;20.48;60.27;101206.44;691137;28;1149;-76
2023/06/22 00:55:06;;;;;;;12.80;10.15;;;;;;;20.52;60.31;101216.13;691250;28;1149;-76
2023/06/22 00:55:28;;;;;;;12.70;10.40;;;;;;;20.55;60.43;101221.41;688850;28;1243;-76
2023/06/22 00:55:52;;;;;;;12.70;10.30;;;;;;;20.51;60.35;101222.34;693047;28;1370;-76
2023/06/22 00:56:12;;;;;;;12.70;11.10;;;;;;;20.54;60.42;101219.66;694809;28;1268;-77
2023/06/22 00:56:36;;;;;;;13.13;10.98;;;;;;;20.54;60.39;101219.66;693038;28;1221;-77
2023/06/22 00:56:58;;;;;;;14.60;11.38;;;;;;;20.57;60.48;101221.41;693628;28;1353;-76
2023/06/22 00:57:20;;;;;;;14.50;11.10;;;;;;;20.48;60.51;101209.06;693820;28;1074;-76
2023/06/22 00:57:41;;;;;;;13.35;10.68;;;;;;;20.48;60.57;101208.22;693805;28;2416;-77
2023/06/22 00:58:01;;;;;;;12.43;10.00;;;;;;;20.45;60.46;101203.81;693912;28;806;-77
2023/06/22 00:58:22;;;;;;;12.68;10.60;;;;;;;20.57;60.41;101215.25;697736;28;1089;-77
2023/06/22 00:58:43;;;;;;;13.80;10.75;;;;;;;20.46;60.54;101202.91;691125;28;1065;-77
2023/06/22 00:59:04;;;;;;;14.00;11.18;;;;;;;20.53;60.65;101212.59;690549;28;1345;-77
2023/06/22 00:59:26;;;;;;;13.47;10.87;;;;;;;20.50;60.52;101206.44;693904;28;1230;-77
2023/06/22 00:59:48;;;;;;;12.73;11.43;;;;;;;20.51;60.46;101211.72;689138;28;1672;-77
2023/06/22 01:00:11;;;;;;;13.32;11.55;;;;;;;20.53;60.62;101212.59;691224;28;1234;-77
2023/06/22 01:00:32;;;;;;;13.20;11.05;;;;;;;20.50;60.51;101203.78;693524;28;1206;-77
2023/06/22 01:00:54;;;;;;;13.73;11.23;;;;;;;20.51;60.54;101209.06;690657;28;1834;-76
2023/06/22 01:01:15;;;;;;;14.20;11.00;;;;;;;20.54;60.69;101209.03;693615;28;1162;-77
2023/06/22 01:01:41;;;;;;;15.65;11.10;;;;;;;20.60;60.60;101223.16;691288;28;799;-77
2023/06/22 01:02:01;;;;;;;14.63;10.70;;;;;;;20.57;60.59;101216.09;691166;28;1215;-77
2023/06/22 01:02:22;;;;;;;14.65;11.00;;;;;;;20.57;60.62;101218.75;691158;28;1335;-77
2023/06/22 01:02:46;;;;;;;12.95;10.15;;;;;;;20.55;60.56;101216.09;688329;28;1199;-76
2023/06/22 01:03:11;;;;;;;12.60;9.95;;;;;;;20.52;60.57;101204.63;691232;28;1314;-77
2023/06/22 01:03:31;;;;;;;12.07;10.02;;;;;;;20.52;60.44;101210.84;693696;28;1026;-77
2023/06/22 01:03:52;;;;;;;12.68;10.70;;;;;;;20.61;60.52;101222.25;691109;28;1049;-76
2023/06/22 01:04:13;;;;;;;13.38;11.40;;;;;;;20.60;60.54;101218.72;688592;28;988;-77
2023/06/22 01:04:36;;;;;;;14.02;11.73;;;;;;;20.53;60.69;101201.97;691161;28;1151;-77
2023/06/22 01:04:57;;;;;;;14.73;11.38;;;;;;;20.55;60.71;101212.59;691120;28;941;-77
2023/06/22 01:05:21;;;;;;;15.07;11.00;;;;;;;20.55;60.66;101209.94;691157;28;1215;-77
2023/06/22 01:05:46;;;;;;;15.23;10.80;;;;;;;20.54;60.81;101208.19;690998;28;1269;-77
2023/06/22 01:06:18;;;;;;;14.73;11.50;;;;;;;20.51;60.57;101203.78;688032;28;1303;-77
2023/06/22 01:06:54;;;;;;;13.85;11.73;;;;;;;20.61;60.65;101220.50;691210;28;933;-77
2023/06/22 01:07:34;;;;;;;15.88;11.90;;;;;;;20.61;60.58;101216.97;690878;28;1110;-77
2023/06/22 01:08:23;;;;;;;16.00;12.48;;;;;;;20.59;60.88;101219.63;694794;28;1016;-76
2023/06/22 01:08:53;;;;;;;15.70;11.77;;;;;;;20.56;60.85;101211.69;693856;28;1063;-76
2023/06/22 01:09:27;;;;;;;15.32;11.95;;;;;;;20.53;60.70;101206.44;693303;28;996;-77
2023/06/22 01:10:22;;;;;;;14.65;11.35;;;;;;;20.55;60.80;101216.09;696948;28;995;-77
2023/06/22 01:10:56;;;;;;;13.98;11.65;;;;;;;20.49;60.86;101216.16;696486;28;1156;-77
2023/06/22 01:11:23;;;;;;;13.20;11.48;;;;;;;20.47;61.07;101211.75;696458;28;1065;-77
2023/06/22 01:11:57;;;;;;;13.43;11.77;;;;;;;20.50;61.03;101207.31;690998;28;2010;-76
2023/06/22 01:12:19;;;;;;;13.60;12.02;;;;;;;20.46;61.00;101217.97;690937;28;1156;-76
2023/06/22 01:12:48;;;;;;;14.18;12.20;;;;;;;20.49;60.95;101218.81;688681;28;1712;-76
2023/06/22 01:13:40;;;;;;;13.20;11.60;;;;;;;20.53;61.08;101222.34;691139;28;2018;-77
2023/06/22 01:14:10;;;;;;;12.30;10.60;;;;;;;20.42;61.17;101206.50;687154;28;1405;-77
2023/06/22 01:14:54;;;;;;;14.05;11.82;;;;;;;20.41;61.11;101213.56;695210;28;1192;-76
2023/06/22 01:15:23;;;;;;;13.30;11.20;;;;;;;20.40;61.20;101210.91;696659;28;1113;-77
2023/06/22 01:15:46;;;;;;;14.27;10.70;;;;;;;20.48;61.09;101224.97;696576;28;1019;-76
2023/06/22 01:16:25;;;;;;;14.25;10.95;;;;;;;20.40;61.31;101213.53;696669;28;2200;-77
2023/06/22 01:16:48;;;;;;;14.02;11.80;;;;;;;20.37;61.46;101209.16;693814;28;1127;-76
2023/06/22 01:17:12;;;;;;;14.05;11.80;;;;;;;20.36;61.60;101207.38;692954;28;1027;-77
2023/06/22 01:17:35;;;;;;;13.40;11.32;;;;;;;20.45;61.59;101230.31;693853;28;1057;-76
2023/06/22 01:17:58;;;;;;;12.73;10.90;;;;;;;20.36;61.54;101217.97;692224;28;1259;-76
2023/06/22 01:18:25;;;;;;;13.20;11.10;;;;;;;20.32;61.51;101207.41;690580;28;1059;-76
2023/06/22 01:18:49;;;;;;;13.82;11.63;;;;;;;20.40;61.49;101221.50;690993;28;1951;-76
2023/06/22 01:19:27;;;;;;;14.35;11.65;;;;;;;20.42;61.71;101225.03;691214;28;1100;-77
2023/06/22 01:19:55;;;;;;;15.70;12.45;;;;;;;20.38;61.62;101223.28;692425;28;1043;-76
2023/06/22 01:20:16;;;;;;;15.40;13.13;;;;;;;20.37;61.60;101221.53;693723;28;1031;-77
2023/06/22 01:20:38;;;;;;;14.60;12.52;;;;;;;20.42;61.58;101230.34;691327;28;816;-77
2023/06/22 01:21:02;;;;;;;14.15;11.75;;;;;;;20.36;61.54;101219.78;691147;28;1159;-77
2023/06/22 01:21:25;;;;;;;14.60;12.10;;;;;;;20.42;61.54;101230.34;688438;28;1372;-77
2023/06/22 01:21:47;;;;;;;14.57;12.80;;;;;;;20.37;61.58;101221.53;688380;28;1069;-77
2023/06/22 01:22:12;;;;;;;15.80;13.30;;;;;;;20.38;61.51;101223.28;691108;28;1032;-77
2023/06/22 01:22:46;;;;;;;15.00;12.80;;;;;;;20.33;61.64;101209.16;685767;28;1119;-76
2023/06/22 01:23:21;;;;;;;13.68;12.27;;;;;;;20.42;61.73;101233.00;685753;28;1103;-77
2023/06/22 01:24:19;;;;;;;15.25;12.35;;;;;;;20.44;61.74;101227.66;688372;28;1376;-76
2023/06/22 01:25:20;;;;;;;15.00;12.25;;;;;;;20.46;61.49;101225.91;691138;28;963;-77
2023/06/22 01:26:19;;;;;;;16.02;12.55;;;;;;;20.47;61.63;101223.22;690968;28;1148;-77
2023/06/22 01:27:05;;;;;;;13.02;11.57;;;;;;;20.40;61.78;101213.53;693818;28;976;-77
2023/06/22 01:27:41;;;;;;;14.48;12.10;;;;;;;20.47;61.66;101223.22;688829;28;1043;-77
2023/06/22 01:28:17;;;;;;;15.63;13.10;;;;;;;20.45;61.57;101225.00;690839;28;960;-76
2023/06/22 01:28:46;;;;;;;16.83;13.38;;;;;;;20.36;61.85;101220.63;688497;28;918;-77
2023/06/22 01:29:09;;;;;;;16.38;13.38;;;;;;;20.32;61.93;101212.72;691023;28;2289;-77
2023/06/22 01:29:33;;;;;;;15.05;13.15;;;;;;;20.33;61.89;101217.13;690274;28;1246;-77
2023/06/22 01:30:05;;;;;;;14.80;13.00;;;;;;;20.35;61.82;101215.38;691018;28;1049;-77
2023/06/22 01:30:33;;;;;;;17.65;12.60;;;;;;;20.30;62.05;101209.19;688374;28;1077;-76
2023/06/22 01:31:03;;;;;;;19.77;12.50;;;;;;;20.32;62.10;101218.91;691056;28;887;-77
2023/06/22 01:31:26;;;;;;;17.30;12.70;;;;;;;20.31;61.98;101205.66;690437;28;1379;-77
2023/06/22 01:31:49;;;;;;;14.50;12.57;;;;;;;20.37;62.01;101211.81;693456;28;1110;-76
2023/06/22 01:32:11;;;;;;;13.48;12.07;;;;;;;20.33;61.91;101198.56;691234;28;1023;-77
2023/06/22 01:32:34;;;;;;;12.55;11.05;;;;;;;20.43;61.71;101218.84;693747;28;1154;-76
2023/06/22 01:32:59;;;;;;;13.25;10.73;;;;;;;20.34;62.04;101206.53;690963;28;1361;-76
2023/06/22 01:33:20;;;;;;;14.40;11.20;;;;;;;20.35;61.84;101207.41;688227;28;1224;-76
2023/06/22 01:33:44;;;;;;;16.37;12.13;;;;;;;20.33;61.82;101203.88;688458;28;1164;-76
2023/06/22 01:34:07;;;;;;;16.13;12.32;;;;;;;20.33;61.80;101203.88;693811;28;1079;-76
2023/06/22 01:34:31;;;;;;;15.60;12.20;;;;;;;20.41;62.00;101223.28;691047;28;1070;-76
2023/06/22 01:34:52;;;;;;;15.70;11.95;;;;;;;20.32;61.94;101202.13;690818;28;2079;-76
2023/06/22 01:35:14;;;;;;;16.87;12.43;;;;;;;20.39;62.06;101219.75;691081;28;1011;-76
2023/06/22 01:35:36;;;;;;;16.30;12.45;;;;;;;20.35;62.04;101204.75;693870;28;784;-76
2023/06/22 01:35:57;;;;;;;14.45;11.98;;;;;;;20.39;62.33;101215.34;693627;28;1347;-76
2023/06/22 01:36:19;;;;;;;14.07;11.40;;;;;;;20.37;62.03;101209.16;693786;28;1107;-76
2023/06/22 01:36:41;;;;;;;13.38;11.00;;;;;;;20.39;62.08;101209.13;691189;28;1068;-76
2023/06/22 01:37:03;;;;;;;13.35;10.75;;;;;;;20.33;61.93;101203.88;692125;28;850;-76
2023/06/22 01:37:24;;;;;;;13.52;11.30;;;;;;;20.36;62.00;101207.38;693711;28;1302;-76
2023/06/22 01:37:46;;;;;;;13.82;11.20;;;;;;;20.32;61.95;101202.13;688646;28;1217;-76
2023/06/22 01:38:09;;;;;;;15.30;11.98;;;;;;;20.39;61.99;101206.50;691062;28;1161;-76
2023/06/22 01:38:31;;;;;;;16.17;12.23;;;;;;;20.32;61.95;101186.22;690769;28;1035;-76
2023/06/22 01:38:52;;;;;;;17.25;12.43;;;;;;;20.37;61.92;101206.53;691038;28;950;-76
2023/06/22 01:39:14;;;;;;;15.77;11.82;;;;;;;20.32;62.12;101197.72;693791;28;1238;-76
2023/06/22 01:39:36;;;;;;;15.10;11.30;;;;;;;20.36;62.06;101203.88;691193;28;951;-76
2023/06/22 01:39:58;;;;;;;15.38;11.90;;;;;;;20.38;61.96;101200.31;693729;28;967;-76
2023/06/22 01:40:20;;;;;;;15.88;12.40;;;;;;;20.42;61.93;101209.13;694000;28;1292;-75
2023/06/22 01:40:41;;;;;;;14.82;12.10;;;;;;;20.41;61.88;101210.03;693772;28;959;-76
2023/06/22 01:41:02;;;;;;;14.30;12.30;;;;;;;20.38;61.88;101205.63;691021;28;1042;-76
2023/06/22 01:41:27;;;;;;;14.32;12.18;;;;;;;20.33;62.13;101199.47;688360;28;1088;-76
2023/06/22 01:41:48;;;;;;;14.63;12.40;;;;;;;20.36;62.33;101210.03;690973;28;1365;-76
2023/06/22 01:42:10;;;;;;;14.45;12.07;;;;;;;20.31;62.16;101192.41;691153;28;1118;-76
2023/06/22 01:42:31;;;;;;;13.97;11.93;;;;;;;20.34;62.08;101201.22;691082;28;1165;-76
2023/06/22 01:42:54;;;;;;;14.82;12.10;;;;;;;20.33;62.08;101194.16;689908;28;1058;-76
2023/06/22 01:43:15;;;;;;;15.30;12.00;;;;;;;20.30;62.02;101193.31;689876;28;1221;-76
2023/06/22 01:43:36;;;;;;;16.15;12.30;;;;;;;20.36;62.15;101204.72;692105;28;815;-76
2023/06/22 01:43:59;;;;;;;14.93;12.18;;;;;;;20.39;62.08;101209.13;694799;28;975;-76
2023/06/22 01:44:21;;;;;;;14.70;12.88;;;;;;;20.34;62.18;101200.34;693749;28;1171;-76
2023/06/22 01:44:43;;;;;;;15.25;12.80;;;;;;;20.34;61.91;101195.91;692044;28;1370;-76
2023/06/22 01:45:06;;;;;;;15.35;12.55;;;;;;;20.32;62.15;101194.16;690908;28;1342;-76
2023/06/22 01:45:28;;;;;;;15.65;12.35;;;;;;;20.38;62.36;101205.63;690975;28;1420;-76
2023/06/22 01:45:49;;;;;;;15.50;12.07;;;;;;;20.32;62.23;101191.50;691066;28;927;-76
2023/06/22 01:46:11;;;;;;;14.52;11.60;;;;;;;20.35;62.05;101205.63;688484;28;996;-76
2023/06/22 01:46:36;;;;;;;13.32;11.68;;;;;;;20.31;62.34;101197.72;688347;28;1062;-76
2023/06/22 01:46:57;;;;;;;13.20;11.80;;;;;;;20.37;62.16;101203.88;688031;28;1042;-76
2023/06/22 01:47:19;;;;;;;13.73;12.20;;;;;;;20.33;62.30;101201.22;688254;28;1132;-76
2023/06/22 01:47:40;;;;;;;14.85;12.40;;;;;;;20.32;62.20;101196.81;688498;28;802;-76
2023/06/22 01:48:01;;;;;;;15.65;12.68;;;;;;;20.30;62.32;101195.94;689699;28;784;-76
2023/06/22 01:48:23;;;;;;;15.07;12.57;;;;;;;20.34;62.40;101201.22;688224;28;1035;-76
2023/06/22 01:48:45;;;;;;;14.68;12.18;;;;;;;20.34;62.34;101203.00;688298;28;968;-76
2023/06/22 01:49:06;;;;;;;14.07;11.88;;;;;;;20.35;62.49;101207.41;688509;28;1067;-76
2023/06/22 01:49:27;;;;;;;13.98;11.73;;;;;;;20.36;62.55;101201.22;688275;28;1002;-76
2023/06/22 01:49:49;;;;;;;13.45;11.50;;;;;;;20.30;62.40;101193.31;690033;28;1130;-76
2023/06/22 01:50:11;;;;;;;13.40;11.40;;;;;;;20.28;62.29;101191.53;693793;28;1910;-76
2023/06/22 01:50:32;;;;;;;12.95;11.18;;;;;;;20.32;62.31;101196.81;694751;28;994;-76